createdAt,value
2023-05-10T00:13:27.051Z,0.70
2023-05-10T00:28:28.675Z,1.77
2023-05-10T00:43:31.589Z,0.88
2023-05-10T00:58:33.540Z,1.15
2023-05-10T01:13:35.231Z,1.02
2023-05-10T01:28:36.894Z,0.90
2023-05-10T01:43:38.476Z,1.63
2023-05-10T01:58:40.126Z,1.42
2023-05-10T02:13:41.924Z,2.03
2023-05-10T02:28:43.657Z,2.20
2023-05-10T02:43:45.534Z,2.80
2023-05-10T02:58:47.656Z,3.70
2023-05-10T03:13:49.436Z,3.30
2023-05-10T03:28:51.285Z,3.22
2023-05-10T03:43:53.127Z,3.95
2023-05-10T03:58:54.760Z,5.82
2023-05-10T04:13:56.457Z,4.63
2023-05-10T04:28:58.009Z,5.65
2023-05-10T04:43:59.559Z,6.35
2023-05-10T04:59:01.112Z,5.00
2023-05-10T05:14:02.672Z,3.55
2023-05-10T05:29:04.261Z,4.00
2023-05-10T05:44:05.823Z,3.88
2023-05-10T05:59:07.445Z,3.75
2023-05-10T06:14:09.090Z,4.18
2023-05-10T06:29:10.714Z,4.07
2023-05-10T06:44:12.520Z,5.55
2023-05-10T06:59:14.834Z,4.22
2023-05-10T07:14:16.441Z,3.35
2023-05-10T07:29:18.002Z,4.32
2023-05-10T07:44:21.406Z,4.50
2023-05-10T07:59:23.003Z,2.53
2023-05-10T08:14:24.559Z,3.00
2023-05-10T08:29:26.795Z,2.00
2023-05-10T08:44:29.944Z,1.70
2023-05-10T08:59:31.536Z,1.60
2023-05-10T09:14:33.124Z,1.35
2023-05-10T09:29:34.703Z,2.65
2023-05-10T09:44:36.275Z,1.42
2023-05-10T09:59:37.851Z,1.40
2023-05-10T10:14:39.423Z,0.80
2023-05-10T10:29:41.081Z,1.67
2023-05-10T10:44:43.134Z,1.40
2023-05-10T10:59:45.365Z,1.08
2023-05-10T11:14:46.910Z,1.50
2023-05-10T11:29:48.466Z,2.00
2023-05-10T11:44:50.051Z,1.48
2023-05-10T11:59:51.666Z,1.00
2023-05-10T12:14:53.229Z,1.02
2023-05-10T12:29:55.858Z,1.95
2023-05-10T12:44:57.731Z,1.35
2023-05-10T12:59:59.319Z,2.30
2023-05-10T13:15:00.922Z,2.38
2023-05-10T13:30:02.692Z,2.45
2023-05-10T13:45:04.312Z,4.68
2023-05-10T14:00:05.872Z,2.40
2023-05-10T14:15:11.559Z,1.38
2023-05-10T14:30:13.127Z,3.88
2023-05-10T14:45:14.811Z,3.90
2023-05-10T15:00:17.127Z,3.05
2023-05-10T15:15:19.739Z,2.42
2023-05-10T15:30:21.399Z,2.70
2023-05-10T15:45:23.013Z,2.25
2023-05-10T16:00:25.432Z,1.88
2023-05-10T16:15:27.508Z,2.95
2023-05-10T16:30:30.589Z,3.28
2023-05-10T16:45:32.624Z,1.85
2023-05-10T17:00:34.227Z,1.48
2023-05-10T17:15:35.830Z,3.33
2023-05-10T17:30:37.696Z,4.07
2023-05-10T17:45:39.293Z,1.75
2023-05-10T18:00:41.004Z,1.67
2023-05-10T18:15:42.548Z,3.50
2023-05-10T18:30:44.259Z,2.65
2023-05-10T18:45:45.840Z,4.10
2023-05-10T19:00:47.670Z,4.13
2023-05-10T19:15:50.786Z,4.90
2023-05-10T19:30:52.488Z,6.82
2023-05-10T19:45:56.803Z,4.30
2023-05-10T20:00:58.484Z,3.80
2023-05-10T20:16:00.147Z,1.95
2023-05-10T20:31:02.207Z,3.00
2023-05-10T20:46:05.621Z,3.63
2023-05-10T21:01:07.391Z,4.38
2023-05-10T21:16:08.994Z,4.30
2023-05-10T21:31:10.573Z,2.58
2023-05-10T21:46:13.575Z,2.28
2023-05-10T22:01:17.236Z,2.70
2023-05-10T22:16:18.897Z,2.72
2023-05-10T22:31:20.517Z,4.55
2023-05-10T22:46:22.127Z,5.43
2023-05-10T23:01:23.737Z,4.10
2023-05-10T23:16:25.408Z,4.57
2023-05-10T23:31:27.031Z,2.00
2023-05-10T23:46:28.904Z,3.40
